createdAt,value
2018-12-12T00:00:31.579Z,77.54
2018-12-12T00:03:34.763Z,76.97
2018-12-12T00:06:38.017Z,77.76
2018-12-12T00:09:41.191Z,77.93
2018-12-12T00:12:44.560Z,77.91
2018-12-12T00:15:48.811Z,78.28
2018-12-12T00:18:52.285Z,78.31
2018-12-12T00:21:55.519Z,77.59
2018-12-12T00:24:58.675Z,78.33
2018-12-12T00:28:01.835Z,78.85
2018-12-12T00:31:05.018Z,78.81
2018-12-12T00:34:08.218Z,79.24
2018-12-12T00:37:11.625Z,78.28
2018-12-12T00:40:14.807Z,78.40
2018-12-12T00:43:17.984Z,77.39
2018-12-12T00:46:21.189Z,77.89
2018-12-12T00:49:24.459Z,78.24
2018-12-12T00:52:27.641Z,77.54
2018-12-12T00:55:30.884Z,78.35
2018-12-12T00:58:34.040Z,78.61
2018-12-12T01:01:38.063Z,77.43
2018-12-12T01:04:41.226Z,78.26
2018-12-12T01:07:44.395Z,78.78
2018-12-12T01:10:49.554Z,78.69
2018-12-12T01:13:52.741Z,77.93
2018-12-12T01:16:55.925Z,77.62
2018-12-12T01:19:59.533Z,78.09
2018-12-12T01:23:03.202Z,78.06
2018-12-12T01:26:06.862Z,78.15
2018-12-12T01:29:10.531Z,77.97
2018-12-12T01:32:13.755Z,77.20
2018-12-12T01:35:17.298Z,77.63
2018-12-12T01:38:21.119Z,78.25
2018-12-12T01:41:24.270Z,77.92
2018-12-12T01:44:27.560Z,77.59
2018-12-12T01:47:31.363Z,78.19
2018-12-12T01:50:34.520Z,78.24
2018-12-12T01:53:38.571Z,78.50
2018-12-12T01:56:41.871Z,78.20
2018-12-12T01:59:45.105Z,77.60
2018-12-12T02:02:48.344Z,76.31
2018-12-12T02:05:51.550Z,77.10
2018-12-12T02:08:54.742Z,77.58
2018-12-12T02:11:58.001Z,76.96
2018-12-12T02:15:01.181Z,77.82
2018-12-12T02:18:04.490Z,77.89
2018-12-12T02:21:07.744Z,76.95
2018-12-12T02:24:10.978Z,77.38
2018-12-12T02:27:14.165Z,78.30
2018-12-12T02:30:17.848Z,76.60
2018-12-12T02:33:21.053Z,76.77
2018-12-12T02:36:24.470Z,76.46
2018-12-12T02:39:27.613Z,76.60
2018-12-12T02:42:30.798Z,76.25
2018-12-12T02:45:33.987Z,76.82
2018-12-12T02:48:37.193Z,76.77
2018-12-12T02:51:40.543Z,76.52
2018-12-12T02:54:44.291Z,76.80
2018-12-12T02:57:47.523Z,76.01
2018-12-12T03:00:50.707Z,76.42
2018-12-12T03:03:53.913Z,76.20
2018-12-12T03:06:57.093Z,74.95
2018-12-12T03:10:00.225Z,75.69
2018-12-12T03:13:03.458Z,75.25
2018-12-12T03:16:07.816Z,75.92
2018-12-12T03:19:10.972Z,77.26
2018-12-12T03:22:14.188Z,77.14
2018-12-12T03:25:17.937Z,76.25
2018-12-12T03:28:21.102Z,75.59
2018-12-12T03:31:24.259Z,76.26
2018-12-12T03:34:27.573Z,76.61
2018-12-12T03:37:31.402Z,75.97
2018-12-12T03:40:35.336Z,76.63
2018-12-12T03:43:38.500Z,75.79
2018-12-12T03:46:43.024Z,76.25
2018-12-12T03:49:46.203Z,76.79
2018-12-12T03:52:49.424Z,77.37
2018-12-12T03:55:52.622Z,77.02
2018-12-12T03:58:55.800Z,76.31
2018-12-12T04:01:59.106Z,77.51
2018-12-12T04:05:02.273Z,76.56
2018-12-12T04:08:05.523Z,77.28
2018-12-12T04:11:10.322Z,78.12
2018-12-12T04:14:13.611Z,77.97
2018-12-12T04:17:16.845Z,78.38
2018-12-12T04:20:20.007Z,77.85
2018-12-12T04:23:24.863Z,77.39
2018-12-12T04:26:28.020Z,77.88
2018-12-12T04:29:31.216Z,77.38
2018-12-12T04:32:34.460Z,77.63
2018-12-12T04:35:37.642Z,77.42
2018-12-12T04:38:41.276Z,78.23
2018-12-12T04:41:44.427Z,78.13
2018-12-12T04:44:47.614Z,78.62
2018-12-12T04:47:51.091Z,78.04
2018-12-12T04:50:54.333Z,78.87
2018-12-12T04:53:57.473Z,78.66
2018-12-12T04:57:00.685Z,79.40
2018-12-12T05:00:04.181Z,78.76
2018-12-12T05:03:07.352Z,78.88
2018-12-12T05:06:10.558Z,78.02
2018-12-12T05:09:13.727Z,78.77
2018-12-12T05:12:16.983Z,78.14
2018-12-12T05:15:20.136Z,79.19
2018-12-12T05:18:23.366Z,79.81
2018-12-12T05:21:27.196Z,79.27
2018-12-12T05:24:30.342Z,79.12
2018-12-12T05:27:33.773Z,78.89
2018-12-12T05:30:37.160Z,79.18
2018-12-12T05:33:40.457Z,79.04
2018-12-12T05:36:43.643Z,79.40
2018-12-12T05:39:46.839Z,79.90
2018-12-12T05:42:49.999Z,80.35
2018-12-12T05:45:53.359Z,79.93
2018-12-12T05:48:57.725Z,80.27
2018-12-12T05:52:00.936Z,81.75
2018-12-12T05:55:04.338Z,81.70
2018-12-12T05:58:07.533Z,82.68
2018-12-12T06:01:11.147Z,82.27
2018-12-12T06:04:14.595Z,82.30
2018-12-12T06:07:17.771Z,82.70
2018-12-12T06:10:20.929Z,83.11
2018-12-12T06:13:24.105Z,83.35
2018-12-12T06:16:27.259Z,82.68
2018-12-12T06:19:30.542Z,83.00
2018-12-12T06:22:37.674Z,84.04
2018-12-12T06:25:39.234Z,83.24
2018-12-12T06:28:42.902Z,83.27
2018-12-12T06:31:46.179Z,83.39
2018-12-12T06:34:49.315Z,84.19
2018-12-12T06:37:52.571Z,84.02
2018-12-12T06:40:56.350Z,83.57
2018-12-12T06:43:59.524Z,83.92
2018-12-12T06:47:04.340Z,82.75
2018-12-12T06:50:08.216Z,82.68
2018-12-12T06:53:11.433Z,81.39
2018-12-12T06:56:14.603Z,82.00
2018-12-12T06:59:18.178Z,80.73
2018-12-12T07:02:21.374Z,81.34
2018-12-12T07:05:24.640Z,79.62
2018-12-12T07:08:27.993Z,78.95
2018-12-12T07:11:31.287Z,79.17
2018-12-12T07:14:34.548Z,78.41
2018-12-12T07:17:39.507Z,76.90
2018-12-12T07:20:42.812Z,77.40
2018-12-12T07:23:47.207Z,77.53
2018-12-12T07:26:50.546Z,76.92
2018-12-12T07:29:53.802Z,76.14
2018-12-12T07:32:57.232Z,75.59
2018-12-12T07:36:00.446Z,75.75
2018-12-12T07:39:05.448Z,74.80
2018-12-12T07:42:08.674Z,74.86
2018-12-12T07:45:12.203Z,74.72
2018-12-12T07:48:15.503Z,74.34
2018-12-12T07:51:18.662Z,74.84
2018-12-12T07:54:21.831Z,75.07
2018-12-12T07:57:25.188Z,74.86
2018-12-12T08:00:28.453Z,74.95
2018-12-12T08:03:31.698Z,73.94
2018-12-12T08:06:35.004Z,74.37
2018-12-12T08:09:38.216Z,74.47
2018-12-12T08:12:41.446Z,73.33
2018-12-12T08:15:44.747Z,73.98
2018-12-12T08:18:48.269Z,73.61
2018-12-12T08:21:51.503Z,74.31
2018-12-12T08:24:54.714Z,73.82
2018-12-12T08:27:57.979Z,73.94
2018-12-12T08:31:01.254Z,72.88
2018-12-12T08:34:05.771Z,73.59
2018-12-12T08:37:09.344Z,72.98
2018-12-12T08:40:12.523Z,73.27
2018-12-12T08:43:15.707Z,73.06
2018-12-12T08:46:19.005Z,74.13
2018-12-12T08:49:22.729Z,73.59
2018-12-12T08:52:25.977Z,72.72
2018-12-12T08:55:30.353Z,73.19
2018-12-12T08:58:34.642Z,72.54
2018-12-12T09:01:37.963Z,72.45
2018-12-12T09:04:42.640Z,73.87
2018-12-12T09:07:46.200Z,74.30
2018-12-12T09:10:49.418Z,73.28
2018-12-12T09:13:52.569Z,74.54
2018-12-12T09:16:55.783Z,73.01
2018-12-12T09:19:58.929Z,72.91
2018-12-12T09:23:02.089Z,72.98
2018-12-12T09:26:05.430Z,73.14
2018-12-12T09:29:08.677Z,73.27
2018-12-12T09:32:11.962Z,72.79
2018-12-12T09:35:15.316Z,73.56
2018-12-12T09:38:18.636Z,73.49
2018-12-12T09:41:21.816Z,73.90
2018-12-12T09:44:25.625Z,73.65
2018-12-12T09:47:29.261Z,73.35
2018-12-12T09:50:32.662Z,74.08
2018-12-12T09:53:35.825Z,75.08
2018-12-12T09:56:39.020Z,74.40
2018-12-12T09:59:42.331Z,74.24
2018-12-12T10:02:45.552Z,75.77
2018-12-12T10:05:48.796Z,74.83
2018-12-12T10:08:52.058Z,74.62
2018-12-12T10:11:55.269Z,74.70
2018-12-12T10:14:58.737Z,75.25
2018-12-12T10:18:02.065Z,75.35
2018-12-12T10:21:05.415Z,76.30
2018-12-12T10:24:08.621Z,75.39
2018-12-12T10:27:11.762Z,74.91
2018-12-12T10:30:15.029Z,75.43
2018-12-12T10:33:18.211Z,75.00
2018-12-12T10:36:21.511Z,74.97
2018-12-12T10:39:24.800Z,75.08
2018-12-12T10:42:28.100Z,75.31
2018-12-12T10:45:31.382Z,75.03
2018-12-12T10:48:34.634Z,75.20
2018-12-12T10:51:37.809Z,75.70
2018-12-12T10:54:41.084Z,75.16
2018-12-12T10:57:44.788Z,75.34
2018-12-12T11:00:53.532Z,75.00
2018-12-12T11:03:56.728Z,74.73
2018-12-12T11:06:59.925Z,74.21
2018-12-12T11:10:03.300Z,74.82
2018-12-12T11:13:07.963Z,73.67
2018-12-12T11:16:11.339Z,74.60
2018-12-12T11:19:14.623Z,73.18
2018-12-12T11:22:18.018Z,74.01
2018-12-12T11:25:21.205Z,72.83
2018-12-12T11:28:25.627Z,73.07
2018-12-12T11:31:29.145Z,73.45
2018-12-12T11:34:32.353Z,72.83
2018-12-12T11:37:35.533Z,72.00
2018-12-12T11:40:38.944Z,72.14
2018-12-12T11:43:42.083Z,72.37
2018-12-12T11:46:45.249Z,72.87
2018-12-12T11:49:48.519Z,71.47
2018-12-12T11:52:51.816Z,72.63
2018-12-12T11:55:54.987Z,73.36
2018-12-12T11:58:58.203Z,73.36
2018-12-12T12:02:01.411Z,73.83
2018-12-12T12:05:04.955Z,74.12
2018-12-12T12:08:08.283Z,74.77
2018-12-12T12:11:11.573Z,74.47
2018-12-12T12:14:15.389Z,74.20
2018-12-12T12:17:18.605Z,74.45
2018-12-12T12:20:21.881Z,73.73
2018-12-12T12:23:25.193Z,74.59
2018-12-12T12:26:30.036Z,73.76
2018-12-12T12:29:33.273Z,73.04
2018-12-12T12:32:37.064Z,72.42
2018-12-12T12:35:40.302Z,71.96
2018-12-12T12:38:44.699Z,72.66
2018-12-12T12:41:48.661Z,72.62
2018-12-12T12:44:52.065Z,73.29
2018-12-12T12:47:55.325Z,73.30
2018-12-12T12:50:58.637Z,73.95
2018-12-12T12:54:01.853Z,74.80
2018-12-12T12:57:05.017Z,74.30
2018-12-12T13:00:08.758Z,74.36
2018-12-12T13:03:11.948Z,74.47
2018-12-12T13:06:15.126Z,74.55
2018-12-12T13:09:18.314Z,74.27
2018-12-12T13:12:22.693Z,74.33
2018-12-12T13:15:27.455Z,74.86
2018-12-12T13:18:30.745Z,74.33
2018-12-12T13:21:33.996Z,73.63
2018-12-12T13:24:37.212Z,75.19
2018-12-12T13:27:40.490Z,75.28
2018-12-12T13:30:43.686Z,73.72
2018-12-12T13:33:46.898Z,74.75
2018-12-12T13:36:50.115Z,75.46
2018-12-12T13:39:53.543Z,75.68
2018-12-12T13:42:56.787Z,75.87
2018-12-12T13:45:59.963Z,75.81
2018-12-12T13:49:03.210Z,75.89
2018-12-12T13:52:06.417Z,76.91
2018-12-12T13:55:09.757Z,77.15
2018-12-12T13:58:13.079Z,76.05
2018-12-12T14:01:16.399Z,73.84
2018-12-12T14:04:22.656Z,73.59
2018-12-12T14:07:25.187Z,73.34
2018-12-12T14:10:28.369Z,72.60
2018-12-12T14:13:31.607Z,73.09
2018-12-12T14:16:34.863Z,72.95
2018-12-12T14:19:38.023Z,73.97
2018-12-12T14:22:41.327Z,72.75
2018-12-12T14:25:44.613Z,74.01
2018-12-12T14:28:47.783Z,74.81
2018-12-12T14:31:51.057Z,75.37
2018-12-12T14:34:54.295Z,75.56
2018-12-12T14:37:57.708Z,75.72
2018-12-12T14:41:00.941Z,75.35
2018-12-12T14:44:05.021Z,75.70
2018-12-12T14:47:08.251Z,76.33
2018-12-12T14:50:11.575Z,75.74
2018-12-12T14:53:14.812Z,75.45
2018-12-12T14:56:18.142Z,75.59
2018-12-12T14:59:21.356Z,75.03
2018-12-12T15:02:24.574Z,74.62
2018-12-12T15:05:27.796Z,74.00
2018-12-12T15:08:31.050Z,72.55
2018-12-12T15:11:34.466Z,73.42
2018-12-12T15:14:37.697Z,72.84
2018-12-12T15:17:40.898Z,72.56
2018-12-12T15:20:44.199Z,72.06
2018-12-12T15:23:47.383Z,72.84
2018-12-12T15:26:50.664Z,72.35
2018-12-12T15:29:54.128Z,72.95
2018-12-12T15:32:57.716Z,72.51
2018-12-12T15:36:01.961Z,73.13
2018-12-12T15:39:08.019Z,73.43
2018-12-12T15:42:11.368Z,72.54
2018-12-12T15:45:14.740Z,73.51
2018-12-12T15:48:18.284Z,74.44
2018-12-12T15:51:21.576Z,74.08
2018-12-12T15:54:24.926Z,74.00
2018-12-12T15:57:28.207Z,73.05
2018-12-12T16:00:32.506Z,73.78
2018-12-12T16:03:35.863Z,73.51
2018-12-12T16:06:39.200Z,73.61
2018-12-12T16:09:42.569Z,73.15
2018-12-12T16:12:45.810Z,73.21
2018-12-12T16:15:49.343Z,73.95
2018-12-12T16:18:53.837Z,74.02
2018-12-12T16:21:57.100Z,74.58
2018-12-12T16:25:00.386Z,73.48
2018-12-12T16:28:03.765Z,73.52
2018-12-12T16:31:07.040Z,72.01
2018-12-12T16:34:10.415Z,72.93
2018-12-12T16:37:13.674Z,72.57
2018-12-12T16:40:16.971Z,72.04
2018-12-12T16:43:20.265Z,72.33
2018-12-12T16:46:24.512Z,72.16
2018-12-12T16:49:27.855Z,71.65
2018-12-12T16:52:31.327Z,72.87
2018-12-12T16:55:34.826Z,71.93
2018-12-12T16:58:38.209Z,73.03
2018-12-12T17:01:41.419Z,72.88
2018-12-12T17:04:44.722Z,73.25
2018-12-12T17:07:48.087Z,72.05
2018-12-12T17:10:52.244Z,73.54
2018-12-12T17:13:55.439Z,73.33
2018-12-12T17:16:58.741Z,72.46
2018-12-12T17:20:02.042Z,73.06
2018-12-12T17:23:06.215Z,73.90
2018-12-12T17:26:09.491Z,73.66
2018-12-12T17:29:12.762Z,74.57
2018-12-12T17:32:16.218Z,74.86
2018-12-12T17:35:19.598Z,76.29
2018-12-12T17:38:22.854Z,77.10
2018-12-12T17:41:26.167Z,76.34
2018-12-12T17:44:29.368Z,76.42
2018-12-12T17:47:32.717Z,77.31
2018-12-12T17:50:36.038Z,78.41
2018-12-12T17:53:39.509Z,78.89
2018-12-12T17:56:42.864Z,79.41
2018-12-12T17:59:46.163Z,78.98
2018-12-12T18:02:49.755Z,78.74
2018-12-12T18:05:53.155Z,79.07
2018-12-12T18:08:56.430Z,78.95
2018-12-12T18:11:59.657Z,78.43
2018-12-12T18:15:02.954Z,79.06
2018-12-12T18:18:06.394Z,78.60
2018-12-12T18:21:09.796Z,79.08
2018-12-12T18:24:13.146Z,79.86
2018-12-12T18:27:16.403Z,80.49
2018-12-12T18:30:20.211Z,81.77
2018-12-12T18:33:23.559Z,81.36
2018-12-12T18:36:27.025Z,80.42
2018-12-12T18:39:30.349Z,81.67
2018-12-12T18:42:33.797Z,81.19
2018-12-12T18:45:37.102Z,82.75
2018-12-12T18:48:40.459Z,82.82
2018-12-12T18:51:43.710Z,83.50
2018-12-12T18:54:47.208Z,83.04
2018-12-12T18:57:51.079Z,83.50
2018-12-12T19:00:54.381Z,84.11
2018-12-12T19:03:58.277Z,83.25
2018-12-12T19:07:01.493Z,83.67
2018-12-12T19:10:05.517Z,83.47
2018-12-12T19:13:08.704Z,83.44
2018-12-12T19:16:12.075Z,83.53
2018-12-12T19:19:16.561Z,83.01
2018-12-12T19:22:21.276Z,83.06
2018-12-12T19:25:24.679Z,82.47
2018-12-12T19:28:28.074Z,82.81
2018-12-12T19:31:31.459Z,83.02
2018-12-12T19:34:34.865Z,83.14
2018-12-12T19:37:38.141Z,83.18
2018-12-12T19:40:41.569Z,82.95
2018-12-12T19:43:45.045Z,82.98
2018-12-12T19:46:48.610Z,82.92
2018-12-12T19:49:51.995Z,82.75
2018-12-12T19:52:55.395Z,83.08
2018-12-12T19:55:58.660Z,82.29
2018-12-12T19:59:03.249Z,82.87
2018-12-12T20:02:06.676Z,81.93
2018-12-12T20:05:10.121Z,82.79
2018-12-12T20:08:13.548Z,83.06
2018-12-12T20:11:17.076Z,82.39
2018-12-12T20:14:20.942Z,82.63
2018-12-12T20:17:24.524Z,82.57
2018-12-12T20:20:28.076Z,82.85
2018-12-12T20:23:31.510Z,83.25
2018-12-12T20:26:34.911Z,82.81
2018-12-12T20:29:38.385Z,83.42
2018-12-12T20:32:41.782Z,82.63
2018-12-12T20:35:48.251Z,82.11
2018-12-12T20:38:50.837Z,81.79
2018-12-12T20:41:54.259Z,82.41
2018-12-12T20:44:57.950Z,82.19
2018-12-12T20:48:01.473Z,80.71
2018-12-12T20:51:04.906Z,81.13
2018-12-12T20:54:08.408Z,80.55
2018-12-12T20:57:12.033Z,80.15
2018-12-12T21:00:15.440Z,80.42
2018-12-12T21:03:18.799Z,80.37
2018-12-12T21:06:22.118Z,80.84
2018-12-12T21:09:25.447Z,79.82
2018-12-12T21:12:28.757Z,80.33
2018-12-12T21:15:32.079Z,79.43
2018-12-12T21:18:35.338Z,79.74
2018-12-12T21:21:39.358Z,78.83
2018-12-12T21:24:42.742Z,79.33
2018-12-12T21:27:47.225Z,78.06
2018-12-12T21:30:50.769Z,77.28
2018-12-12T21:33:54.141Z,78.06
2018-12-12T21:36:57.415Z,78.02
2018-12-12T21:40:00.678Z,77.68
2018-12-12T21:43:03.925Z,76.83
2018-12-12T21:46:07.206Z,76.04
2018-12-12T21:49:10.641Z,75.89
2018-12-12T21:52:14.076Z,76.47
2018-12-12T21:55:18.249Z,75.55
2018-12-12T21:58:21.724Z,75.69
2018-12-12T22:01:25.019Z,75.05
2018-12-12T22:04:28.359Z,75.04
2018-12-12T22:07:31.684Z,75.61
2018-12-12T22:10:34.928Z,74.38
2018-12-12T22:13:38.207Z,75.45
2018-12-12T22:16:41.506Z,76.16
2018-12-12T22:19:44.779Z,75.43
2018-12-12T22:22:48.178Z,74.91
2018-12-12T22:25:51.966Z,75.47
2018-12-12T22:28:55.250Z,75.25
2018-12-12T22:31:58.539Z,75.41
2018-12-12T22:35:01.740Z,75.12
2018-12-12T22:38:04.894Z,76.42
2018-12-12T22:41:08.721Z,75.70
2018-12-12T22:44:11.925Z,76.70
2018-12-12T22:47:15.279Z,74.63
2018-12-12T22:50:18.510Z,75.68
2018-12-12T22:53:21.739Z,75.26
2018-12-12T22:56:25.002Z,74.38
2018-12-12T22:59:28.247Z,75.38
2018-12-12T23:02:31.537Z,75.48
2018-12-12T23:05:34.810Z,74.41
2018-12-12T23:08:38.096Z,75.31
2018-12-12T23:11:41.448Z,73.98
2018-12-12T23:14:44.675Z,74.51
2018-12-12T23:17:47.998Z,73.81
2018-12-12T23:20:51.361Z,74.28
2018-12-12T23:23:54.872Z,73.65
2018-12-12T23:26:58.178Z,74.17
2018-12-12T23:30:01.482Z,73.96
2018-12-12T23:33:04.908Z,73.92
2018-12-12T23:36:11.077Z,75.17
2018-12-12T23:39:14.329Z,73.64
2018-12-12T23:42:17.594Z,73.43
2018-12-12T23:45:21.398Z,74.14
2018-12-12T23:48:25.200Z,73.62
2018-12-12T23:51:28.591Z,74.54
2018-12-12T23:54:32.407Z,74.55
2018-12-12T23:57:35.961Z,74.01
